createdAt,value
2019-01-16T00:02:11.587Z,79.46
2019-01-16T00:05:03.940Z,79.01
2019-01-16T00:07:53.464Z,78.35
2019-01-16T00:10:49.791Z,77.86
2019-01-16T00:13:31.258Z,79.28
2019-01-16T00:16:13.738Z,78.86
2019-01-16T00:19:10.174Z,78.72
2019-01-16T00:21:59.549Z,78.40
2019-01-16T00:24:59.113Z,79.00
2019-01-16T00:27:58.895Z,79.57
2019-01-16T00:30:43.446Z,79.30
2019-01-16T00:33:52.053Z,80.26
2019-01-16T00:36:45.176Z,79.53
2019-01-16T00:39:41.543Z,79.82
2019-01-16T00:42:30.609Z,79.82
2019-01-16T00:45:30.411Z,80.97
2019-01-16T00:48:33.280Z,81.54
2019-01-16T00:51:26.720Z,82.67
2019-01-16T00:54:15.663Z,83.65
2019-01-16T00:57:16.483Z,83.09
2019-01-16T01:00:05.798Z,82.41
2019-01-16T01:03:04.502Z,82.56
2019-01-16T01:05:54.603Z,81.59
2019-01-16T01:08:39.552Z,81.68
2019-01-16T01:11:32.862Z,80.95
2019-01-16T01:14:22.151Z,82.08
2019-01-16T01:17:11.221Z,82.56
2019-01-16T01:20:16.750Z,82.44
2019-01-16T01:23:07.218Z,82.54
2019-01-16T01:26:03.169Z,83.83
2019-01-16T01:28:59.491Z,83.48
2019-01-16T01:31:50.450Z,84.29
2019-01-16T01:34:50.075Z,84.89
2019-01-16T01:37:40.505Z,85.00
2019-01-16T01:40:25.166Z,84.59
2019-01-16T01:43:21.395Z,84.90
2019-01-16T01:46:23.769Z,85.52
2019-01-16T01:49:20.092Z,86.01
2019-01-16T01:52:19.535Z,85.67
2019-01-16T01:55:12.807Z,85.19
2019-01-16T01:58:03.210Z,85.77
2019-01-16T02:00:53.664Z,84.46
2019-01-16T02:03:50.023Z,87.00
2019-01-16T02:06:41.089Z,88.16
2019-01-16T02:09:26.964Z,86.51
2019-01-16T02:12:14.768Z,86.39
2019-01-16T02:15:03.879Z,85.08
2019-01-16T02:17:57.167Z,85.36
2019-01-16T02:21:05.751Z,85.41
2019-01-16T02:23:56.978Z,86.63
2019-01-16T02:26:53.168Z,85.35
2019-01-16T02:29:42.509Z,85.44
2019-01-16T02:32:31.718Z,85.97
2019-01-16T02:35:22.204Z,85.62
2019-01-16T02:38:13.671Z,85.90
2019-01-16T02:41:13.063Z,86.48
2019-01-16T02:43:53.728Z,85.68
2019-01-16T02:46:59.542Z,86.42
2019-01-16T02:49:41.882Z,87.51
2019-01-16T02:52:34.061Z,88.20
2019-01-16T02:55:43.116Z,88.32
2019-01-16T02:58:45.896Z,88.73
2019-01-16T03:01:26.179Z,88.02
2019-01-16T03:04:19.493Z,87.72
2019-01-16T03:07:12.968Z,87.10
2019-01-16T03:10:12.448Z,87.50
2019-01-16T03:13:15.078Z,88.95
2019-01-16T03:16:02.999Z,88.15
2019-01-16T03:18:45.714Z,88.61
2019-01-16T03:21:28.625Z,89.79
2019-01-16T03:24:19.859Z,88.84
2019-01-16T03:27:06.974Z,88.04
2019-01-16T03:30:09.354Z,88.58
2019-01-16T03:33:05.776Z,88.69
2019-01-16T03:35:56.340Z,88.75
2019-01-16T03:38:45.467Z,87.26
2019-01-16T03:41:26.311Z,87.13
2019-01-16T03:44:15.609Z,86.53
2019-01-16T03:47:21.153Z,86.54
2019-01-16T03:50:17.926Z,85.50
2019-01-16T03:53:26.535Z,85.74
2019-01-16T03:56:19.940Z,85.95
2019-01-16T03:59:09.343Z,86.76
2019-01-16T04:02:01.473Z,86.75
2019-01-16T04:04:58.007Z,86.94
2019-01-16T04:07:54.233Z,85.85
2019-01-16T04:10:43.959Z,87.02
2019-01-16T04:13:32.982Z,86.63
2019-01-16T04:16:32.660Z,86.42
2019-01-16T04:19:28.974Z,86.34
2019-01-16T04:22:18.909Z,87.66
2019-01-16T04:25:18.124Z,86.58
2019-01-16T04:28:08.991Z,86.99
2019-01-16T04:31:07.431Z,85.71
2019-01-16T04:33:57.928Z,85.07
2019-01-16T04:36:47.375Z,84.18
2019-01-16T04:39:40.859Z,84.44
2019-01-16T04:42:34.159Z,84.54
2019-01-16T04:45:25.228Z,84.21
2019-01-16T04:48:19.074Z,85.60
2019-01-16T04:51:17.166Z,84.92
2019-01-16T04:54:26.178Z,84.34
2019-01-16T04:57:16.590Z,84.87
2019-01-16T05:00:05.824Z,84.47
2019-01-16T05:03:02.633Z,86.26
2019-01-16T05:05:49.570Z,86.82
2019-01-16T05:08:40.304Z,86.86
2019-01-16T05:11:50.122Z,88.43
2019-01-16T05:14:40.886Z,86.87
2019-01-16T05:17:46.970Z,86.39
2019-01-16T05:20:40.491Z,87.37
2019-01-16T05:23:39.849Z,88.73
2019-01-16T05:26:20.314Z,88.94
2019-01-16T05:29:19.724Z,87.16
2019-01-16T05:32:19.154Z,86.41
2019-01-16T05:35:15.825Z,86.09
2019-01-16T05:38:05.350Z,86.94
2019-01-16T05:41:10.648Z,85.92
2019-01-16T05:43:59.952Z,85.71
2019-01-16T05:46:50.457Z,86.48
2019-01-16T05:49:55.996Z,85.85
2019-01-16T05:52:49.392Z,87.67
2019-01-16T05:55:39.881Z,89.71
2019-01-16T05:58:39.519Z,89.00
2019-01-16T06:01:28.800Z,88.52
2019-01-16T06:04:18.568Z,88.56
2019-01-16T06:07:09.125Z,87.38
2019-01-16T06:09:59.694Z,89.69
2019-01-16T06:12:58.507Z,89.57
2019-01-16T06:15:48.830Z,89.53
2019-01-16T06:18:48.538Z,89.56
2019-01-16T06:21:38.883Z,88.79
2019-01-16T06:24:47.809Z,89.57
2019-01-16T06:27:38.837Z,88.57
2019-01-16T06:30:26.665Z,89.50
2019-01-16T06:33:17.328Z,89.90
2019-01-16T06:36:26.151Z,90.34
2019-01-16T06:39:22.796Z,88.28
2019-01-16T06:42:14.842Z,86.78
2019-01-16T06:45:11.206Z,85.93
2019-01-16T06:48:00.628Z,87.10
2019-01-16T06:51:06.450Z,86.83
2019-01-16T06:54:03.414Z,85.97
2019-01-16T06:57:06.189Z,85.41
2019-01-16T06:59:55.008Z,84.93
2019-01-16T07:02:56.422Z,85.41
2019-01-16T07:05:47.070Z,86.39
2019-01-16T07:08:49.912Z,84.81
2019-01-16T07:11:55.829Z,85.65
2019-01-16T07:14:51.557Z,85.67
2019-01-16T07:17:45.387Z,85.34
2019-01-16T07:20:41.844Z,85.69
2019-01-16T07:23:26.655Z,86.23
2019-01-16T07:26:20.201Z,86.01
2019-01-16T07:29:26.183Z,85.70
2019-01-16T07:32:16.627Z,86.65
2019-01-16T07:35:30.498Z,86.76
2019-01-16T07:38:49.487Z,86.68
2019-01-16T07:42:29.662Z,87.17
2019-01-16T07:45:20.861Z,87.04
2019-01-16T07:48:26.847Z,87.10
2019-01-16T07:51:23.394Z,86.70
2019-01-16T07:54:12.839Z,87.08
2019-01-16T07:57:03.159Z,85.29
2019-01-16T08:00:02.563Z,85.20
2019-01-16T08:03:04.837Z,86.49
2019-01-16T08:07:58.970Z,87.06
2019-01-16T08:10:48.434Z,86.53
2019-01-16T08:13:49.138Z,85.90
2019-01-16T08:16:39.883Z,85.71
2019-01-16T08:19:56.459Z,85.52
2019-01-16T08:22:58.883Z,85.73
2019-01-16T08:25:58.874Z,86.48
2019-01-16T08:28:49.646Z,87.99
2019-01-16T08:31:40.110Z,88.06
2019-01-16T08:34:53.318Z,89.32
2019-01-16T08:37:51.415Z,88.79
2019-01-16T08:40:55.503Z,88.85
2019-01-16T08:44:16.533Z,88.53
2019-01-16T08:47:15.195Z,87.39
2019-01-16T08:50:32.414Z,88.42
2019-01-16T08:53:22.659Z,87.82
2019-01-16T08:56:20.452Z,88.39
2019-01-16T08:59:21.767Z,88.25
2019-01-16T09:02:12.282Z,87.68
2019-01-16T09:05:13.218Z,87.33
2019-01-16T09:08:00.615Z,87.18
2019-01-16T09:11:03.804Z,86.54
2019-01-16T09:13:54.310Z,87.87
2019-01-16T09:16:42.457Z,88.72
2019-01-16T09:19:32.797Z,88.88
2019-01-16T09:22:23.318Z,88.64
2019-01-16T09:25:33.086Z,88.69
2019-01-16T09:28:23.629Z,89.11
2019-01-16T09:31:13.154Z,89.02
2019-01-16T09:34:08.048Z,88.82
2019-01-16T09:37:08.771Z,87.37
2019-01-16T09:39:59.579Z,87.88
2019-01-16T09:42:54.390Z,87.07
2019-01-16T09:45:49.423Z,86.12
2019-01-16T09:48:35.518Z,86.95
2019-01-16T09:51:23.492Z,86.63
2019-01-16T09:54:15.179Z,85.95
2019-01-16T09:57:19.019Z,86.17
2019-01-16T10:00:09.412Z,86.20
2019-01-16T10:03:14.350Z,86.74
2019-01-16T10:06:12.076Z,86.74
2019-01-16T10:09:03.870Z,87.36
2019-01-16T10:11:46.396Z,87.13
2019-01-16T10:14:41.116Z,86.38
2019-01-16T10:17:37.393Z,86.97
2019-01-16T10:20:33.381Z,86.65
2019-01-16T10:23:24.134Z,86.80
2019-01-16T10:26:18.880Z,86.89
2019-01-16T10:29:10.221Z,87.22
2019-01-16T10:32:04.776Z,87.06
2019-01-16T10:34:53.013Z,87.76
2019-01-16T10:37:46.852Z,87.72
2019-01-16T10:40:47.693Z,87.31
2019-01-16T10:43:34.205Z,87.91
2019-01-16T10:46:25.895Z,87.43
2019-01-16T10:49:18.272Z,87.24
2019-01-16T10:52:24.901Z,86.73
2019-01-16T10:55:15.091Z,87.07
2019-01-16T10:58:05.659Z,86.79
2019-01-16T11:01:06.287Z,86.60
2019-01-16T11:04:07.032Z,86.94
2019-01-16T11:06:58.489Z,86.39
2019-01-16T11:09:56.317Z,86.84
2019-01-16T11:12:47.941Z,86.91
2019-01-16T11:15:58.018Z,85.69
2019-01-16T11:18:51.198Z,86.88
2019-01-16T11:21:50.613Z,86.48
2019-01-16T11:24:41.147Z,85.88
2019-01-16T11:27:41.680Z,86.03
2019-01-16T11:30:48.727Z,86.51
2019-01-16T11:33:42.922Z,85.58
2019-01-16T11:36:41.831Z,85.44
2019-01-16T11:39:42.736Z,84.97
2019-01-16T11:42:33.286Z,83.61
2019-01-16T11:45:28.680Z,84.29
2019-01-16T11:48:19.142Z,84.61
2019-01-16T11:51:10.814Z,83.90
2019-01-16T11:54:01.396Z,84.25
2019-01-16T12:00:42.461Z,84.07
2019-01-16T12:03:37.413Z,83.70
2019-01-16T12:06:44.051Z,83.69
2019-01-16T12:09:43.408Z,84.36
2019-01-16T12:12:34.098Z,82.44
2019-01-16T12:15:26.389Z,82.33
2019-01-16T12:18:30.145Z,82.96
2019-01-16T12:21:26.317Z,83.34
2019-01-16T12:24:13.181Z,83.03
2019-01-16T12:27:12.495Z,83.82
2019-01-16T12:30:04.804Z,84.07
2019-01-16T12:33:03.184Z,83.29
2019-01-16T12:36:00.590Z,83.59
2019-01-16T12:38:55.316Z,84.29
2019-01-16T12:41:59.363Z,83.48
2019-01-16T12:44:55.047Z,83.98
2019-01-16T12:47:49.706Z,83.97
2019-01-16T12:50:51.715Z,83.71
2019-01-16T12:54:08.098Z,83.67
2019-01-16T12:57:10.469Z,83.18
2019-01-16T13:00:06.491Z,83.71
2019-01-16T13:03:23.470Z,84.06
2019-01-16T13:06:21.214Z,84.19
2019-01-16T13:09:11.654Z,84.43
2019-01-16T13:12:03.288Z,83.29
2019-01-16T13:15:00.948Z,83.56
2019-01-16T13:18:01.649Z,83.47
2019-01-16T13:21:00.953Z,83.87
2019-01-16T13:24:04.751Z,83.03
2019-01-16T13:27:02.981Z,83.23
2019-01-16T13:30:08.938Z,83.22
2019-01-16T13:33:06.688Z,83.67
2019-01-16T13:36:01.369Z,83.32
2019-01-16T13:38:45.987Z,83.23
2019-01-16T13:44:05.408Z,81.98
2019-01-16T13:46:57.281Z,81.87
2019-01-16T13:49:46.248Z,81.78
2019-01-16T13:52:45.019Z,81.57
2019-01-16T13:55:45.685Z,81.26
2019-01-16T13:58:23.766Z,82.19
2019-01-16T14:01:15.524Z,83.18
2019-01-16T14:04:13.118Z,83.35
2019-01-16T14:07:03.513Z,83.57
2019-01-16T14:09:58.543Z,82.99
2019-01-16T14:12:49.038Z,83.13
2019-01-16T14:15:49.685Z,83.75
2019-01-16T14:18:44.367Z,83.23
2019-01-16T14:21:42.214Z,84.07
2019-01-16T14:24:36.591Z,83.67
2019-01-16T14:27:40.481Z,83.73
2019-01-16T14:30:36.493Z,83.39
2019-01-16T14:33:26.858Z,83.83
2019-01-16T14:36:17.134Z,84.16
2019-01-16T14:39:10.396Z,84.07
2019-01-16T14:42:02.293Z,84.21
2019-01-16T14:44:56.963Z,84.23
2019-01-16T14:47:51.518Z,84.14
2019-01-16T14:50:32.169Z,84.43
2019-01-16T14:53:30.852Z,83.65
2019-01-16T14:56:25.473Z,84.37
2019-01-16T14:59:22.912Z,84.15
2019-01-16T15:02:14.740Z,84.37
2019-01-16T15:05:04.972Z,84.71
2019-01-16T15:07:59.572Z,85.01
2019-01-16T15:10:49.894Z,84.26
2019-01-16T15:13:36.945Z,84.41
2019-01-16T15:16:21.968Z,84.61
2019-01-16T15:19:13.491Z,84.12
2019-01-16T15:21:55.156Z,84.64
2019-01-16T15:24:39.327Z,84.66
2019-01-16T15:27:30.935Z,84.67
2019-01-16T15:30:25.375Z,84.61
2019-01-16T15:33:23.311Z,84.55
2019-01-16T15:36:24.005Z,84.25
2019-01-16T15:39:17.277Z,84.41
2019-01-16T15:41:59.255Z,83.79
2019-01-16T15:44:58.604Z,84.31
2019-01-16T15:47:52.109Z,83.71
2019-01-16T15:50:42.575Z,83.45
2019-01-16T15:53:40.231Z,83.60
2019-01-16T15:56:24.619Z,84.07
2019-01-16T15:59:16.235Z,83.63
2019-01-16T16:02:06.713Z,83.46
2019-01-16T16:04:57.155Z,82.71
2019-01-16T16:07:47.456Z,83.04
2019-01-16T16:10:39.631Z,83.95
2019-01-16T16:13:29.895Z,82.79
2019-01-16T16:16:26.696Z,83.55
2019-01-16T16:19:17.145Z,83.54
2019-01-16T16:22:25.555Z,84.01
2019-01-16T16:25:26.680Z,83.67
2019-01-16T16:28:21.338Z,83.77
2019-01-16T16:31:13.001Z,83.69
2019-01-16T16:34:07.634Z,82.82
2019-01-16T16:37:17.588Z,83.05
2019-01-16T16:40:01.558Z,82.86
2019-01-16T16:43:04.872Z,82.84
2019-01-16T16:45:44.690Z,83.19
2019-01-16T16:48:37.431Z,82.78
2019-01-16T16:51:26.935Z,82.66
2019-01-16T16:54:17.588Z,83.15
2019-01-16T16:57:21.250Z,83.15
2019-01-16T17:00:39.677Z,83.27
2019-01-16T17:03:31.797Z,82.46
2019-01-16T17:06:41.485Z,82.28
2019-01-16T17:09:31.323Z,82.29
2019-01-16T17:12:27.063Z,82.41
2019-01-16T17:15:11.585Z,82.39
2019-01-16T17:18:03.461Z,83.07
2019-01-16T17:20:53.530Z,81.97
2019-01-16T17:23:43.975Z,82.70
2019-01-16T17:26:34.314Z,82.23
2019-01-16T17:29:33.608Z,82.77
2019-01-16T17:32:28.112Z,81.99
2019-01-16T17:35:34.877Z,82.35
2019-01-16T17:38:31.639Z,82.05
2019-01-16T17:41:23.245Z,82.06
2019-01-16T17:44:13.450Z,82.18
2019-01-16T17:47:07.973Z,82.08
2019-01-16T17:49:52.696Z,80.93
2019-01-16T17:52:42.720Z,79.73
2019-01-16T17:55:49.578Z,78.91
2019-01-16T17:58:47.254Z,80.19
2019-01-16T18:01:30.424Z,79.54
2019-01-16T18:04:22.005Z,80.92
2019-01-16T18:07:12.306Z,80.62
2019-01-16T18:10:10.477Z,81.35
2019-01-16T18:13:00.921Z,81.05
2019-01-16T18:15:52.545Z,80.75
2019-01-16T18:18:43.034Z,80.47
2019-01-16T18:21:34.672Z,81.08
2019-01-16T18:24:39.362Z,80.50
2019-01-16T18:27:31.093Z,81.51
2019-01-16T18:30:36.154Z,80.83
2019-01-16T18:33:23.382Z,80.98
2019-01-16T18:36:08.717Z,80.22
2019-01-16T18:39:12.297Z,80.65
2019-01-16T18:42:03.911Z,80.71
2019-01-16T18:44:50.784Z,79.91
2019-01-16T18:47:41.184Z,80.45
2019-01-16T18:50:34.070Z,80.37
2019-01-16T18:53:24.520Z,80.59
2019-01-16T18:56:22.733Z,80.47
2019-01-16T18:59:11.121Z,79.91
2019-01-16T19:02:02.787Z,80.04
2019-01-16T19:04:55.230Z,79.32
2019-01-16T19:07:45.624Z,79.84
2019-01-16T19:10:52.472Z,79.79
2019-01-16T19:13:53.645Z,79.72
2019-01-16T19:16:44.553Z,79.59
2019-01-16T19:19:35.736Z,79.73
2019-01-16T19:22:19.365Z,79.76
2019-01-16T19:25:03.067Z,79.83
2019-01-16T19:27:47.497Z,79.49
2019-01-16T19:30:32.968Z,80.09
2019-01-16T19:33:31.188Z,79.61
2019-01-16T19:36:28.956Z,79.91
2019-01-16T19:39:35.351Z,79.34
2019-01-16T19:42:37.865Z,78.91
2019-01-16T19:45:29.144Z,79.46
2019-01-16T19:48:20.870Z,79.28
2019-01-16T19:51:12.974Z,79.36
2019-01-16T19:54:19.706Z,78.81
2019-01-16T19:57:23.692Z,79.49
2019-01-16T20:00:33.442Z,79.52
2019-01-16T20:03:28.303Z,79.23
2019-01-16T20:06:19.158Z,79.76
2019-01-16T20:09:33.247Z,79.20
2019-01-16T20:12:28.707Z,78.87
2019-01-16T20:15:21.037Z,78.54
2019-01-16T20:18:09.972Z,78.95
2019-01-16T20:21:05.505Z,77.63
2019-01-16T20:23:55.963Z,78.58
2019-01-16T20:26:47.583Z,77.84
2019-01-16T20:29:45.184Z,78.56
2019-01-16T20:32:37.464Z,78.47
2019-01-16T20:35:31.960Z,78.30
2019-01-16T20:38:23.788Z,78.40
2019-01-16T20:41:30.376Z,77.86
2019-01-16T20:44:17.768Z,78.48
2019-01-16T20:47:12.330Z,78.29
2019-01-16T20:50:06.693Z,78.57
2019-01-16T20:53:17.473Z,78.32
2019-01-16T20:56:12.633Z,78.14
2019-01-16T20:59:24.401Z,78.57
2019-01-16T21:02:19.039Z,78.63
2019-01-16T21:06:52.850Z,78.22
2019-01-16T21:09:40.640Z,78.21
2019-01-16T21:14:07.180Z,77.81
2019-01-16T21:17:04.543Z,77.12
2019-01-16T21:20:15.011Z,77.40
2019-01-16T21:23:24.566Z,77.15
2019-01-16T21:26:48.090Z,76.21
2019-01-16T21:29:54.498Z,76.42
2019-01-16T21:32:53.556Z,76.04
2019-01-16T21:35:59.676Z,76.63
2019-01-16T21:38:54.168Z,76.48
2019-01-16T21:41:38.661Z,76.48
2019-01-16T21:45:03.350Z,77.38
2019-01-16T21:51:17.005Z,78.46
2019-01-16T21:54:08.954Z,78.82
2019-01-16T21:57:14.176Z,78.83
2019-01-16T22:00:10.615Z,78.89
2019-01-16T22:03:12.667Z,79.02
2019-01-16T22:06:05.737Z,78.55
2019-01-16T22:09:06.265Z,78.79
2019-01-16T22:12:01.518Z,78.45
2019-01-16T22:15:02.689Z,78.51
2019-01-16T22:18:06.602Z,78.65
2019-01-16T22:21:08.334Z,79.91
2019-01-16T22:24:06.360Z,80.10
2019-01-16T22:27:00.319Z,79.82
2019-01-16T22:29:50.907Z,79.79
2019-01-16T22:32:47.559Z,79.64
2019-01-16T22:35:50.520Z,78.96
2019-01-16T22:38:45.390Z,78.49
2019-01-16T22:41:39.019Z,78.55
2019-01-16T22:44:54.890Z,77.59
2019-01-16T22:48:02.121Z,77.49
2019-01-16T22:50:58.332Z,77.06
2019-01-16T22:54:18.490Z,76.72
2019-01-16T22:57:15.400Z,77.00
2019-01-16T23:00:10.567Z,77.28
2019-01-16T23:03:04.293Z,77.20
2019-01-16T23:05:55.329Z,77.36
2019-01-16T23:08:49.288Z,77.80
2019-01-16T23:11:40.026Z,77.48
2019-01-16T23:14:32.004Z,76.48
2019-01-16T23:17:24.279Z,77.37
2019-01-16T23:20:14.272Z,75.88
2019-01-16T23:23:01.474Z,77.82
2019-01-16T23:25:51.126Z,77.71
2019-01-16T23:28:35.594Z,77.51
2019-01-16T23:31:26.332Z,77.04
2019-01-16T23:34:10.915Z,76.50
2019-01-16T23:37:02.095Z,77.41
2019-01-16T23:40:09.189Z,77.32
2019-01-16T23:43:01.498Z,77.41
2019-01-16T23:45:53.456Z,77.79
2019-01-16T23:48:51.227Z,77.32
2019-01-16T23:51:49.685Z,78.06
2019-01-16T23:54:44.461Z,77.31
2019-01-16T23:57:51.688Z,78.30
